createdAt,value
2023-04-30T00:02:23.635Z,14.18
2023-04-30T00:07:25.676Z,13.43
2023-04-30T00:12:27.515Z,14.07
2023-04-30T00:17:29.289Z,15.10
2023-04-30T00:22:31.012Z,11.98
2023-04-30T00:27:32.717Z,11.00
2023-04-30T00:32:34.431Z,11.07
2023-04-30T00:37:36.195Z,9.93
2023-04-30T00:42:38.014Z,10.55
2023-04-30T00:47:39.978Z,10.75
2023-04-30T00:52:45.387Z,10.48
2023-04-30T00:57:47.396Z,9.88
2023-04-30T01:02:49.810Z,12.23
2023-04-30T01:07:52.632Z,11.23
2023-04-30T01:13:20.479Z,12.80
2023-04-30T01:18:28.380Z,12.40
2023-04-30T01:24:04.512Z,15.75
2023-04-30T01:29:07.066Z,15.80
2023-04-30T01:34:08.784Z,13.27
2023-04-30T01:39:16.752Z,15.82
2023-04-30T01:44:46.482Z,13.07
2023-04-30T01:50:09.449Z,11.75
2023-04-30T01:55:20.660Z,11.27
2023-04-30T02:00:22.411Z,11.25
2023-04-30T02:05:25.082Z,9.18
2023-04-30T02:10:29.486Z,8.60
2023-04-30T02:15:31.289Z,8.55
2023-04-30T02:20:33.243Z,8.30
2023-04-30T02:25:38.009Z,10.43
2023-04-30T02:30:39.857Z,7.63
2023-04-30T02:35:41.759Z,7.75
2023-04-30T02:40:43.469Z,10.52
2023-04-30T02:45:45.175Z,8.10
2023-04-30T02:50:46.975Z,7.75
2023-04-30T02:55:48.725Z,6.72
2023-04-30T03:00:50.367Z,7.75
2023-04-30T03:05:52.101Z,7.32
2023-04-30T03:10:53.916Z,7.18
2023-04-30T03:16:04.689Z,7.50
2023-04-30T03:21:06.632Z,7.75
2023-04-30T03:26:08.556Z,6.32
2023-04-30T03:31:10.315Z,7.20
2023-04-30T03:36:13.085Z,6.47
2023-04-30T03:41:14.837Z,7.03
2023-04-30T03:46:16.456Z,6.97
2023-04-30T03:51:20.934Z,7.78
2023-04-30T03:56:22.656Z,7.22
2023-04-30T04:01:24.786Z,6.75
2023-04-30T04:06:26.967Z,7.80
2023-04-30T04:11:29.072Z,7.72
2023-04-30T04:16:32.190Z,7.10
2023-04-30T04:21:34.006Z,6.75
2023-04-30T04:26:40.509Z,6.30
2023-04-30T04:31:43.959Z,6.28
2023-04-30T04:36:46.022Z,6.07
2023-04-30T04:41:47.730Z,5.68
2023-04-30T04:46:49.978Z,5.63
2023-04-30T04:51:51.760Z,5.78
2023-04-30T04:56:53.476Z,6.93
2023-04-30T05:01:56.437Z,6.55
2023-04-30T05:06:58.290Z,6.15
2023-04-30T05:12:00.199Z,6.75
2023-04-30T05:17:01.870Z,5.35
2023-04-30T05:22:04.240Z,9.18
2023-04-30T05:27:06.322Z,6.97
2023-04-30T05:32:08.381Z,7.25
2023-04-30T05:37:10.480Z,7.28
2023-04-30T05:42:12.296Z,6.25
2023-04-30T05:47:14.038Z,3.90
2023-04-30T05:52:17.514Z,4.00
2023-04-30T05:57:19.295Z,7.35
2023-04-30T06:02:21.121Z,5.13
2023-04-30T06:07:22.896Z,7.70
2023-04-30T06:12:24.899Z,3.92
2023-04-30T06:17:26.600Z,5.05
2023-04-30T06:22:30.219Z,6.53
2023-04-30T06:27:32.541Z,4.80
2023-04-30T06:32:35.018Z,6.18
2023-04-30T06:37:38.115Z,4.97
2023-04-30T06:42:40.639Z,5.60
2023-04-30T06:47:43.019Z,4.93
2023-04-30T06:52:45.111Z,5.53
2023-04-30T06:57:47.114Z,3.95
2023-04-30T07:02:52.338Z,8.85
2023-04-30T07:07:54.852Z,4.22
2023-04-30T07:12:56.686Z,5.90
2023-04-30T07:17:58.417Z,6.35
2023-04-30T07:23:00.188Z,8.90
2023-04-30T07:28:02.249Z,6.38
2023-04-30T07:33:03.988Z,4.88
2023-04-30T07:38:05.912Z,6.43
2023-04-30T07:43:07.750Z,7.45
2023-04-30T07:48:09.429Z,9.00
2023-04-30T07:53:11.220Z,4.78
2023-04-30T07:58:12.855Z,4.78
2023-04-30T08:03:14.601Z,9.40
2023-04-30T08:08:16.352Z,5.88
2023-04-30T08:13:18.050Z,8.90
2023-04-30T08:18:19.679Z,6.95
2023-04-30T08:23:21.361Z,6.63
2023-04-30T08:28:22.983Z,3.13
2023-04-30T08:33:24.751Z,8.02
2023-04-30T08:38:28.278Z,8.50
2023-04-30T08:43:30.901Z,6.03
2023-04-30T08:48:33.395Z,9.68
2023-04-30T08:53:36.672Z,9.23
2023-04-30T08:58:38.471Z,8.65
2023-04-30T09:03:40.709Z,4.65
2023-04-30T09:08:44.433Z,4.10
2023-04-30T09:13:46.079Z,4.50
2023-04-30T09:18:48.399Z,5.72
2023-04-30T09:24:00.015Z,4.28
2023-04-30T09:29:07.848Z,4.07
2023-04-30T09:34:11.474Z,5.10
2023-04-30T09:39:17.552Z,4.82
2023-04-30T09:44:30.285Z,3.27
2023-04-30T09:50:03.811Z,4.30
2023-04-30T09:55:09.714Z,4.00
2023-04-30T10:00:12.005Z,6.00
2023-04-30T10:05:13.664Z,4.13
2023-04-30T10:10:20.268Z,3.33
2023-04-30T10:15:31.055Z,4.68
2023-04-30T10:20:37.015Z,4.57
2023-04-30T10:25:41.458Z,5.60
2023-04-30T10:30:46.429Z,5.80
2023-04-30T10:35:56.956Z,4.25
2023-04-30T10:41:02.661Z,3.90
2023-04-30T10:46:04.849Z,5.93
2023-04-30T10:51:08.753Z,5.13
2023-04-30T10:56:10.438Z,4.88
2023-04-30T11:01:14.869Z,4.13
2023-04-30T11:06:20.482Z,6.50
2023-04-30T11:11:23.795Z,26.23
2023-04-30T11:16:34.889Z,4.13
2023-04-30T11:22:05.335Z,5.00
2023-04-30T11:27:07.028Z,4.65
2023-04-30T11:32:09.374Z,3.95
2023-04-30T11:37:15.973Z,3.30
2023-04-30T11:47:23.016Z,4.13
2023-04-30T11:52:25.857Z,6.00
2023-04-30T11:57:35.225Z,4.10
2023-04-30T12:02:37.074Z,3.47
2023-04-30T12:07:39.627Z,4.93
2023-04-30T12:12:43.345Z,3.42
2023-04-30T12:17:46.482Z,3.05
2023-04-30T12:22:48.867Z,3.13
2023-04-30T12:27:53.176Z,3.85
2023-04-30T12:32:59.615Z,3.35
2023-04-30T12:38:06.104Z,2.92
2023-04-30T12:43:09.104Z,3.20
2023-04-30T12:48:11.440Z,3.45
2023-04-30T12:53:13.297Z,3.38
2023-04-30T12:58:16.547Z,3.20
2023-04-30T13:03:21.105Z,2.85
2023-04-30T13:08:23.638Z,3.33
2023-04-30T13:13:26.042Z,2.83
2023-04-30T13:18:27.943Z,2.22
2023-04-30T13:23:31.856Z,3.30
2023-04-30T13:28:35.380Z,3.33
2023-04-30T13:33:37.233Z,2.55
2023-04-30T13:38:39.430Z,3.47
2023-04-30T13:43:42.677Z,3.58
2023-04-30T13:48:48.107Z,3.50
2023-04-30T13:53:49.703Z,3.08
2023-04-30T13:58:51.401Z,3.83
2023-04-30T14:03:53.125Z,1.60
2023-04-30T14:08:54.876Z,2.72
2023-04-30T14:13:56.510Z,2.40
2023-04-30T14:18:58.120Z,3.80
2023-04-30T14:23:59.716Z,5.00
2023-04-30T14:29:01.395Z,1.83
2023-04-30T14:34:03.133Z,3.22
2023-04-30T14:39:05.077Z,2.90
2023-04-30T14:44:06.778Z,3.80
2023-04-30T14:49:08.365Z,3.35
2023-04-30T14:54:10.129Z,3.67
2023-04-30T14:59:15.161Z,2.58
2023-04-30T15:04:48.431Z,2.28
2023-04-30T15:09:56.979Z,3.10
2023-04-30T15:15:04.898Z,4.45
2023-04-30T15:20:10.663Z,3.20
2023-04-30T15:25:15.417Z,2.63
2023-04-30T15:30:17.447Z,1.42
2023-04-30T15:35:22.319Z,3.70
2023-04-30T15:40:25.425Z,4.15
2023-04-30T15:45:29.797Z,1.85
2023-04-30T15:50:34.362Z,3.17
2023-04-30T15:55:37.523Z,5.15
2023-04-30T16:00:39.701Z,3.78
2023-04-30T16:05:41.719Z,3.33
2023-04-30T16:10:43.418Z,5.18
2023-04-30T16:15:45.347Z,2.70
2023-04-30T16:20:49.186Z,2.38
2023-04-30T16:25:50.895Z,3.75
2023-04-30T16:30:52.838Z,1.58
2023-04-30T16:35:55.177Z,2.97
2023-04-30T16:40:56.861Z,2.78
2023-04-30T16:45:58.590Z,4.43
2023-04-30T16:51:00.355Z,3.88
2023-04-30T16:56:02.086Z,5.20
2023-04-30T17:01:03.772Z,5.18
2023-04-30T17:06:06.485Z,3.22
2023-04-30T17:11:08.180Z,4.18
2023-04-30T17:16:09.881Z,3.35
2023-04-30T17:21:11.548Z,4.90
2023-04-30T17:26:13.212Z,6.28
2023-04-30T17:31:14.999Z,5.20
2023-04-30T17:36:17.985Z,4.82
2023-04-30T17:41:20.052Z,3.10
2023-04-30T17:46:22.446Z,4.88
2023-04-30T17:51:24.310Z,6.05
2023-04-30T17:56:28.675Z,8.63
2023-04-30T18:01:30.686Z,10.77
2023-04-30T18:06:32.449Z,10.98
2023-04-30T18:11:34.129Z,6.82
2023-04-30T18:16:36.023Z,6.72
2023-04-30T18:21:38.075Z,5.90
2023-04-30T18:26:39.746Z,4.40
2023-04-30T18:31:41.455Z,6.57
2023-04-30T18:36:43.188Z,7.93
2023-04-30T18:41:45.057Z,8.10
2023-04-30T18:46:46.681Z,9.60
2023-04-30T18:51:48.322Z,10.35
2023-04-30T18:56:50.047Z,13.73
2023-04-30T19:01:51.690Z,16.58
2023-04-30T19:06:55.621Z,14.27
2023-04-30T19:11:57.920Z,12.57
2023-04-30T19:17:00.487Z,12.75
2023-04-30T19:22:02.252Z,10.30
2023-04-30T19:27:04.344Z,10.95
2023-04-30T19:32:06.600Z,8.63
2023-04-30T19:37:08.449Z,9.10
2023-04-30T19:42:10.178Z,7.63
2023-04-30T19:47:11.815Z,6.93
2023-04-30T19:52:14.401Z,7.80
2023-04-30T19:57:17.480Z,9.85
2023-04-30T20:02:19.180Z,8.48
2023-04-30T20:07:20.891Z,11.55
2023-04-30T20:12:22.667Z,11.60
2023-04-30T20:17:24.325Z,12.93
2023-04-30T20:22:27.527Z,13.77
2023-04-30T20:27:29.523Z,11.45
2023-04-30T20:32:31.667Z,13.30
2023-04-30T20:37:34.352Z,11.32
2023-04-30T20:42:36.361Z,16.50
2023-04-30T20:47:39.928Z,21.73
2023-04-30T20:52:41.748Z,20.17
2023-04-30T20:57:43.456Z,22.52
2023-04-30T21:02:45.466Z,24.92
2023-04-30T21:07:47.193Z,26.58
2023-04-30T21:12:48.908Z,21.20
2023-04-30T21:17:50.729Z,28.60
2023-04-30T21:22:55.030Z,20.67
2023-04-30T21:27:57.008Z,20.17
2023-04-30T21:32:59.264Z,28.15
2023-04-30T21:38:01.338Z,34.35
2023-04-30T21:43:03.626Z,31.48
2023-04-30T21:48:05.932Z,41.90
2023-04-30T21:53:08.061Z,22.85
2023-04-30T21:58:09.690Z,25.58
2023-04-30T22:03:11.426Z,26.45
2023-04-30T22:08:13.120Z,25.58
2023-04-30T22:13:15.128Z,20.73
2023-04-30T22:18:17.208Z,21.35
2023-04-30T22:23:21.510Z,20.67
2023-04-30T22:28:23.499Z,19.00
2023-04-30T22:33:25.369Z,18.50
2023-04-30T22:38:27.045Z,18.20
2023-04-30T22:43:30.373Z,21.75
2023-04-30T22:48:32.272Z,16.48
2023-04-30T22:53:34.526Z,17.73
2023-04-30T22:58:36.796Z,22.42
2023-04-30T23:03:38.702Z,25.30
2023-04-30T23:08:40.560Z,28.42
2023-04-30T23:13:42.283Z,43.28
2023-04-30T23:18:43.965Z,36.13
2023-04-30T23:23:45.717Z,49.80
2023-04-30T23:28:47.339Z,112.20
2023-04-30T23:33:49.135Z,123.03
2023-04-30T23:38:51.269Z,171.80
2023-04-30T23:43:53.336Z,71.20
2023-04-30T23:48:55.598Z,93.93
2023-04-30T23:53:57.195Z,83.72
2023-04-30T23:58:58.867Z,57.53
